createdAt,value
2017-07-16T00:01:27.841Z,9.00
2017-07-16T00:03:55.586Z,10.30
2017-07-16T00:06:23.226Z,9.50
2017-07-16T00:08:50.894Z,9.73
2017-07-16T00:11:18.608Z,9.40
2017-07-16T00:13:46.410Z,8.93
2017-07-16T00:16:14.146Z,11.03
2017-07-16T00:18:41.895Z,8.80
2017-07-16T00:21:09.661Z,9.00
2017-07-16T00:23:37.314Z,8.60
2017-07-16T00:26:05.047Z,8.37
2017-07-16T00:28:32.695Z,9.00
2017-07-16T00:31:00.339Z,8.53
2017-07-16T00:33:28.057Z,8.00
2017-07-16T00:35:55.753Z,8.30
2017-07-16T00:38:23.439Z,8.63
2017-07-16T00:40:51.146Z,8.63
2017-07-16T00:43:18.797Z,8.20
2017-07-16T00:45:46.454Z,8.83
2017-07-16T00:48:14.158Z,7.90
2017-07-16T00:50:41.812Z,7.80
2017-07-16T00:53:09.470Z,8.20
2017-07-16T00:55:37.211Z,9.20
2017-07-16T00:58:04.912Z,8.20
2017-07-16T01:00:32.563Z,7.80
2017-07-16T01:03:00.249Z,7.20
2017-07-16T01:05:27.915Z,8.40
2017-07-16T01:07:55.572Z,7.60
2017-07-16T01:10:23.475Z,6.53
2017-07-16T01:12:51.223Z,7.40
2017-07-16T01:15:18.971Z,7.50
2017-07-16T01:17:46.626Z,7.13
2017-07-16T01:20:14.260Z,8.70
2017-07-16T01:22:41.890Z,8.10
2017-07-16T01:25:09.589Z,7.23
2017-07-16T01:27:37.328Z,6.73
2017-07-16T01:30:05.871Z,6.30
2017-07-16T01:32:33.558Z,6.20
2017-07-16T01:35:01.227Z,4.80
2017-07-16T01:37:28.887Z,4.70
2017-07-16T01:39:56.583Z,6.20
2017-07-16T01:42:24.198Z,5.23
2017-07-16T01:44:51.829Z,4.57
2017-07-16T01:47:19.514Z,4.60
2017-07-16T01:49:47.163Z,5.00
2017-07-16T01:52:14.788Z,4.87
2017-07-16T01:54:42.481Z,4.97
2017-07-16T01:57:10.128Z,4.70
2017-07-16T01:59:37.792Z,5.33
2017-07-16T02:02:05.564Z,4.90
2017-07-16T02:04:33.314Z,4.30
2017-07-16T02:07:01.053Z,5.27
2017-07-16T02:09:28.921Z,4.50
2017-07-16T02:11:56.613Z,4.53
2017-07-16T02:14:24.257Z,4.73
2017-07-16T02:16:51.958Z,3.60
2017-07-16T02:19:19.623Z,3.73
2017-07-16T02:21:47.287Z,4.17
2017-07-16T02:24:15.023Z,3.30
2017-07-16T02:26:42.653Z,4.17
2017-07-16T02:29:10.298Z,4.17
2017-07-16T02:31:38.006Z,3.50
2017-07-16T02:34:05.638Z,3.20
2017-07-16T02:36:33.291Z,3.43
2017-07-16T02:39:01.004Z,3.50
2017-07-16T02:41:28.809Z,3.40
2017-07-16T02:43:56.444Z,3.10
2017-07-16T02:46:24.125Z,3.17
2017-07-16T02:48:51.761Z,4.50
2017-07-16T02:51:19.517Z,4.07
2017-07-16T02:53:48.159Z,3.90
2017-07-16T02:56:15.927Z,3.40
2017-07-16T02:58:44.382Z,3.33
2017-07-16T03:01:12.709Z,3.00
2017-07-16T03:03:40.373Z,3.87
2017-07-16T03:06:08.032Z,3.83
2017-07-16T03:08:35.715Z,3.53
2017-07-16T03:11:03.350Z,4.37
2017-07-16T03:13:31.040Z,4.70
2017-07-16T03:15:58.756Z,5.03
2017-07-16T03:18:26.470Z,4.07
2017-07-16T03:20:54.906Z,3.73
2017-07-16T03:23:22.599Z,3.90
2017-07-16T03:25:51.006Z,4.03
2017-07-16T03:28:18.896Z,3.33
2017-07-16T03:30:46.646Z,3.50
2017-07-16T03:33:14.266Z,3.83
2017-07-16T03:35:42.024Z,4.00
2017-07-16T03:38:09.879Z,3.67
2017-07-16T03:40:37.517Z,2.87
2017-07-16T03:43:05.181Z,2.77
2017-07-16T03:45:32.895Z,3.20
2017-07-16T03:48:00.535Z,3.10
2017-07-16T03:50:28.152Z,2.97
2017-07-16T03:52:55.803Z,2.10
2017-07-16T03:55:23.448Z,1.90
2017-07-16T03:57:51.085Z,2.43
2017-07-16T04:00:18.837Z,2.33
2017-07-16T04:02:46.480Z,2.10
2017-07-16T04:05:14.101Z,2.67
2017-07-16T04:07:41.761Z,2.20
2017-07-16T04:10:09.415Z,2.37
2017-07-16T04:12:37.057Z,2.20
2017-07-16T04:15:04.750Z,1.77
2017-07-16T04:17:32.428Z,1.97
2017-07-16T04:20:00.811Z,2.17
2017-07-16T04:22:28.540Z,2.10
2017-07-16T04:24:57.094Z,2.17
2017-07-16T04:27:24.751Z,1.83
2017-07-16T04:29:53.295Z,2.00
2017-07-16T04:32:21.049Z,2.70
2017-07-16T04:34:48.700Z,2.33
2017-07-16T04:37:16.406Z,2.10
2017-07-16T04:39:44.059Z,1.60
2017-07-16T04:42:11.728Z,1.97
2017-07-16T04:44:40.305Z,2.03
2017-07-16T04:47:08.079Z,1.73
2017-07-16T04:49:35.795Z,2.03
2017-07-16T04:52:03.457Z,2.03
2017-07-16T04:54:31.099Z,1.80
2017-07-16T04:56:58.758Z,1.90
2017-07-16T04:59:26.454Z,2.23
2017-07-16T05:01:54.089Z,2.10
2017-07-16T05:04:21.876Z,1.30
2017-07-16T05:06:49.565Z,1.93
2017-07-16T05:09:17.266Z,2.27
2017-07-16T05:11:44.877Z,2.17
2017-07-16T05:14:12.765Z,2.20
2017-07-16T05:16:41.476Z,2.27
2017-07-16T05:19:10.698Z,2.23
2017-07-16T05:21:38.565Z,1.90
2017-07-16T05:24:06.206Z,2.00
2017-07-16T05:26:33.844Z,1.90
2017-07-16T05:29:01.542Z,2.03
2017-07-16T05:31:29.182Z,2.60
2017-07-16T05:33:56.842Z,2.20
2017-07-16T05:36:25.436Z,2.00
2017-07-16T05:38:53.141Z,2.00
2017-07-16T05:41:20.790Z,2.20
2017-07-16T05:43:48.613Z,2.20
2017-07-16T05:46:16.354Z,1.97
2017-07-16T05:48:44.034Z,2.20
2017-07-16T05:51:11.752Z,2.40
2017-07-16T05:53:39.609Z,2.90
2017-07-16T05:56:08.097Z,2.27
2017-07-16T05:58:35.842Z,2.47
2017-07-16T06:01:03.479Z,2.73
2017-07-16T06:03:31.136Z,2.40
2017-07-16T06:05:58.849Z,3.03
2017-07-16T06:08:27.317Z,3.53
2017-07-16T06:10:55.428Z,3.40
2017-07-16T06:13:23.213Z,2.60
2017-07-16T06:15:51.062Z,3.40
2017-07-16T06:18:18.857Z,3.33
2017-07-16T06:20:46.569Z,2.93
2017-07-16T06:23:14.342Z,3.13
2017-07-16T06:25:41.991Z,3.20
2017-07-16T06:28:09.685Z,2.67
2017-07-16T06:30:37.374Z,2.87
2017-07-16T06:33:05.038Z,2.80
2017-07-16T06:35:32.789Z,3.53
2017-07-16T06:38:00.594Z,2.80
2017-07-16T06:40:28.340Z,2.47
2017-07-16T06:42:56.079Z,2.97
2017-07-16T06:45:23.754Z,2.30
2017-07-16T06:47:52.166Z,2.43
2017-07-16T06:50:19.840Z,2.33
2017-07-16T06:52:47.466Z,2.47
2017-07-16T06:55:15.117Z,2.70
2017-07-16T06:57:42.775Z,2.93
2017-07-16T07:00:10.527Z,2.23
2017-07-16T07:02:40.352Z,2.33
2017-07-16T07:05:11.053Z,2.60
2017-07-16T07:07:40.164Z,2.43
2017-07-16T07:12:44.289Z,2.60
2017-07-16T07:15:17.880Z,3.53
2017-07-16T07:17:47.641Z,3.47
2017-07-16T07:20:18.434Z,3.83
2017-07-16T07:22:48.329Z,3.80
2017-07-16T07:25:17.782Z,4.70
2017-07-16T07:27:48.237Z,5.13
2017-07-16T07:30:18.034Z,5.37
2017-07-16T07:32:47.763Z,6.40
2017-07-16T07:35:18.003Z,5.20
2017-07-16T07:37:45.889Z,6.27
2017-07-16T07:40:13.523Z,5.10
2017-07-16T07:42:42.183Z,6.53
2017-07-16T07:45:09.857Z,6.83
2017-07-16T07:47:37.522Z,6.90
2017-07-16T07:50:05.250Z,7.30
2017-07-16T07:52:33.247Z,9.80
2017-07-16T07:55:00.915Z,10.10
2017-07-16T07:57:28.695Z,11.53
2017-07-16T07:59:56.914Z,10.70
2017-07-16T08:02:24.613Z,11.20
2017-07-16T08:04:52.418Z,11.43
2017-07-16T08:07:20.045Z,12.33
2017-07-16T08:09:47.683Z,11.80
2017-07-16T08:12:15.356Z,12.27
2017-07-16T08:14:42.940Z,12.20
2017-07-16T08:17:10.527Z,11.77
2017-07-16T08:19:38.158Z,13.27
2017-07-16T08:22:05.781Z,12.83
2017-07-16T08:24:33.383Z,12.10
2017-07-16T08:27:01.144Z,12.27
2017-07-16T08:29:29.539Z,11.60
2017-07-16T08:31:57.161Z,12.20
2017-07-16T08:34:26.369Z,12.33
2017-07-16T08:36:53.972Z,11.30
2017-07-16T08:39:21.569Z,10.80
2017-07-16T08:41:49.238Z,9.93
2017-07-16T08:44:16.886Z,8.80
2017-07-16T08:46:44.517Z,11.33
2017-07-16T08:49:12.180Z,11.60
2017-07-16T08:51:39.806Z,9.20
2017-07-16T08:54:07.435Z,9.47
2017-07-16T08:56:35.150Z,9.57
2017-07-16T08:59:02.784Z,8.53
2017-07-16T09:01:31.151Z,8.53
2017-07-16T09:03:59.594Z,8.63
2017-07-16T09:06:27.953Z,8.17
2017-07-16T09:08:55.542Z,8.30
2017-07-16T09:11:23.208Z,8.47
2017-07-16T09:13:50.792Z,9.30
2017-07-16T09:16:18.396Z,8.37
2017-07-16T09:18:46.075Z,8.40
2017-07-16T09:21:13.709Z,8.70
2017-07-16T09:23:41.339Z,8.43
2017-07-16T09:26:08.983Z,8.40
2017-07-16T09:28:37.784Z,8.87
2017-07-16T09:31:09.405Z,7.30
2017-07-16T09:33:39.171Z,8.47
2017-07-16T09:36:09.787Z,9.53
2017-07-16T09:38:37.490Z,10.93
2017-07-16T09:41:05.062Z,11.63
2017-07-16T09:43:32.649Z,13.70
2017-07-16T09:46:00.275Z,12.13
2017-07-16T09:48:27.860Z,12.90
2017-07-16T09:50:55.433Z,13.37
2017-07-16T09:53:23.840Z,15.57
2017-07-16T09:55:51.456Z,15.50
2017-07-16T09:58:19.027Z,14.00
2017-07-16T10:00:46.660Z,14.87
2017-07-16T10:03:14.266Z,14.50
2017-07-16T10:05:42.615Z,14.53
2017-07-16T10:08:10.259Z,15.70
2017-07-16T10:10:37.855Z,13.50
2017-07-16T10:13:11.542Z,16.20
2017-07-16T10:15:39.125Z,16.20
2017-07-16T10:18:06.694Z,14.90
2017-07-16T10:20:35.109Z,14.47
2017-07-16T10:23:02.682Z,15.70
2017-07-16T10:25:30.254Z,14.80
2017-07-16T10:27:57.881Z,16.10
2017-07-16T10:30:26.225Z,15.83
2017-07-16T10:32:53.817Z,17.13
2017-07-16T10:35:21.473Z,16.87
2017-07-16T10:37:49.060Z,18.27
2017-07-16T10:40:16.648Z,15.83
2017-07-16T10:42:44.279Z,15.53
2017-07-16T10:45:11.868Z,17.43
2017-07-16T10:47:39.443Z,18.00
2017-07-16T10:50:07.085Z,17.93
2017-07-16T10:52:34.690Z,17.73
2017-07-16T10:55:02.294Z,16.93
2017-07-16T10:57:30.722Z,16.03
2017-07-16T10:59:58.309Z,16.30
2017-07-16T11:02:26.651Z,16.53
2017-07-16T11:04:54.289Z,15.40
2017-07-16T11:07:21.885Z,15.27
2017-07-16T11:09:49.485Z,15.33
2017-07-16T11:12:17.116Z,14.37
2017-07-16T11:14:44.691Z,15.63
2017-07-16T11:17:13.062Z,15.17
2017-07-16T11:19:41.441Z,14.17
2017-07-16T11:22:09.027Z,16.20
2017-07-16T11:24:36.602Z,15.97
2017-07-16T11:27:04.986Z,16.80
2017-07-16T11:29:32.580Z,16.30
2017-07-16T11:32:00.168Z,16.60
2017-07-16T11:34:27.817Z,18.10
2017-07-16T11:36:55.415Z,16.60
2017-07-16T11:39:23.010Z,16.77
2017-07-16T11:41:50.655Z,17.53
2017-07-16T11:44:18.357Z,17.57
2017-07-16T11:46:45.947Z,18.07
2017-07-16T11:49:13.610Z,18.60
2017-07-16T11:51:41.201Z,17.30
2017-07-16T11:54:08.797Z,18.27
2017-07-16T11:56:36.444Z,18.67
2017-07-16T11:59:04.028Z,17.80
2017-07-16T12:01:31.597Z,18.20
2017-07-16T12:04:00.000Z,18.90
2017-07-16T12:06:27.993Z,20.60
2017-07-16T12:08:55.838Z,18.93
2017-07-16T12:11:23.578Z,19.90
2017-07-16T12:13:51.957Z,20.20
2017-07-16T12:16:19.553Z,19.60
2017-07-16T12:18:48.560Z,20.90
2017-07-16T12:21:16.187Z,21.53
2017-07-16T12:23:43.849Z,23.73
2017-07-16T12:26:13.056Z,23.47
2017-07-16T12:28:41.158Z,22.10
2017-07-16T12:31:08.913Z,22.57
2017-07-16T12:33:36.625Z,23.53
2017-07-16T12:36:04.335Z,23.00
2017-07-16T12:38:32.008Z,22.00
2017-07-16T12:41:00.108Z,25.80
2017-07-16T12:43:27.766Z,25.67
2017-07-16T12:45:55.361Z,23.17
2017-07-16T12:48:24.286Z,21.87
2017-07-16T12:50:52.326Z,23.43
2017-07-16T12:53:19.986Z,24.57
2017-07-16T12:55:48.878Z,24.50
2017-07-16T12:58:16.581Z,25.73
2017-07-16T13:00:44.595Z,24.47
2017-07-16T13:03:12.820Z,25.63
2017-07-16T13:05:40.441Z,24.03
2017-07-16T13:08:08.234Z,23.60
2017-07-16T13:10:36.293Z,24.87
2017-07-16T13:13:03.880Z,26.20
2017-07-16T13:15:32.082Z,24.37
2017-07-16T13:18:00.344Z,27.33
2017-07-16T13:20:28.001Z,26.87
2017-07-16T13:22:55.706Z,28.40
2017-07-16T13:25:23.444Z,27.33
2017-07-16T13:27:51.476Z,29.30
2017-07-16T13:30:20.489Z,28.60
2017-07-16T13:32:48.327Z,27.27
2017-07-16T13:35:15.981Z,27.90
2017-07-16T13:37:43.559Z,24.93
2017-07-16T13:40:11.684Z,26.10
2017-07-16T13:42:39.326Z,25.13
2017-07-16T13:45:07.649Z,24.33
2017-07-16T13:47:35.343Z,24.50
2017-07-16T13:50:02.974Z,23.63
2017-07-16T13:52:30.607Z,23.00
2017-07-16T13:54:58.777Z,23.37
2017-07-16T13:57:26.426Z,24.10
2017-07-16T13:59:54.193Z,24.10
2017-07-16T14:02:21.829Z,22.50
2017-07-16T14:04:50.113Z,23.23
2017-07-16T14:07:17.775Z,22.00
2017-07-16T14:09:45.939Z,22.77
2017-07-16T14:12:13.527Z,21.43
2017-07-16T14:14:41.623Z,21.77
2017-07-16T14:17:09.249Z,24.60
2017-07-16T14:19:36.849Z,23.67
2017-07-16T14:22:04.428Z,22.73
2017-07-16T14:24:32.074Z,23.97
2017-07-16T14:26:59.703Z,24.87
2017-07-16T14:29:27.308Z,21.93
2017-07-16T14:31:54.985Z,22.20
2017-07-16T14:34:22.592Z,22.17
2017-07-16T14:36:50.179Z,24.30
2017-07-16T14:39:17.805Z,25.47
2017-07-16T14:41:45.419Z,24.27
2017-07-16T14:44:13.003Z,24.67
2017-07-16T14:46:40.626Z,21.17
2017-07-16T14:49:09.024Z,22.93
2017-07-16T14:51:36.788Z,24.30
2017-07-16T14:54:04.448Z,26.30
2017-07-16T14:56:32.097Z,26.60
2017-07-16T14:58:59.698Z,25.70
2017-07-16T15:01:27.325Z,25.47
2017-07-16T15:03:54.912Z,26.03
2017-07-16T15:06:22.504Z,26.43
2017-07-16T15:08:50.162Z,27.67
2017-07-16T15:11:17.783Z,29.97
2017-07-16T15:13:45.408Z,30.03
2017-07-16T15:16:13.167Z,31.83
2017-07-16T15:18:41.826Z,32.43
2017-07-16T15:21:10.685Z,31.67
2017-07-16T15:23:38.324Z,34.20
2017-07-16T15:26:05.941Z,31.83
2017-07-16T15:28:33.543Z,33.70
2017-07-16T15:31:02.717Z,31.23
2017-07-16T15:33:31.508Z,34.80
2017-07-16T15:36:00.161Z,31.07
2017-07-16T15:38:29.111Z,34.00
2017-07-16T15:40:58.435Z,33.97
2017-07-16T15:43:26.991Z,33.90
2017-07-16T15:45:55.381Z,33.47
2017-07-16T15:48:22.958Z,33.43
2017-07-16T15:50:51.779Z,36.40
2017-07-16T15:53:20.824Z,37.17
2017-07-16T15:55:50.208Z,36.20
2017-07-16T15:58:18.877Z,32.60
2017-07-16T16:00:47.781Z,39.27
2017-07-16T16:03:16.760Z,38.37
2017-07-16T16:05:45.949Z,38.40
2017-07-16T16:08:14.600Z,42.77
2017-07-16T16:10:43.723Z,37.60
2017-07-16T16:13:13.623Z,40.90
2017-07-16T16:15:43.044Z,40.47
2017-07-16T16:18:12.049Z,38.77
2017-07-16T16:20:40.115Z,30.07
2017-07-16T16:23:10.160Z,20.20
2017-07-16T16:25:37.854Z,19.07
2017-07-16T16:28:06.360Z,18.00
2017-07-16T16:30:34.991Z,16.03
2017-07-16T16:33:03.962Z,12.03
2017-07-16T16:35:32.636Z,11.33
2017-07-16T16:38:01.896Z,8.43
2017-07-16T16:40:30.276Z,9.10
2017-07-16T16:42:58.669Z,6.77
2017-07-16T16:45:26.379Z,7.47
2017-07-16T16:47:53.981Z,8.23
2017-07-16T16:50:21.605Z,6.10
2017-07-16T16:52:50.511Z,6.00
2017-07-16T16:55:18.095Z,5.93
2017-07-16T16:57:46.480Z,5.60
2017-07-16T17:00:14.090Z,5.57
2017-07-16T17:02:43.109Z,4.97
2017-07-16T17:05:11.451Z,5.03
2017-07-16T17:07:39.100Z,5.60
2017-07-16T17:10:06.681Z,4.40
2017-07-16T17:12:34.246Z,4.57
2017-07-16T17:15:01.905Z,4.20
2017-07-16T17:17:29.494Z,3.63
2017-07-16T17:19:57.844Z,4.10
2017-07-16T17:22:25.453Z,3.50
2017-07-16T17:24:54.351Z,3.37
2017-07-16T17:27:22.871Z,2.73
2017-07-16T17:29:50.537Z,2.97
2017-07-16T17:32:18.588Z,2.70
2017-07-16T17:34:46.631Z,2.80
2017-07-16T17:37:14.300Z,2.63
2017-07-16T17:39:41.880Z,2.67
2017-07-16T17:42:09.450Z,2.40
2017-07-16T17:44:37.101Z,3.20
2017-07-16T17:47:04.666Z,2.30
2017-07-16T17:49:34.503Z,3.13
2017-07-16T17:52:02.171Z,5.10
2017-07-16T17:54:29.761Z,3.97
2017-07-16T17:56:57.377Z,2.70
2017-07-16T17:59:24.990Z,3.23
2017-07-16T18:01:53.330Z,3.43
2017-07-16T18:04:20.899Z,2.90
2017-07-16T18:06:49.323Z,3.40
2017-07-16T18:09:16.895Z,3.60
2017-07-16T18:11:44.494Z,3.53
2017-07-16T18:14:12.145Z,3.60
2017-07-16T18:16:39.737Z,3.80
2017-07-16T18:19:08.208Z,3.60
2017-07-16T18:21:36.601Z,3.70
2017-07-16T18:24:04.170Z,3.43
2017-07-16T18:26:32.385Z,3.40
2017-07-16T18:29:00.009Z,3.90
2017-07-16T18:31:28.351Z,3.20
2017-07-16T18:33:55.929Z,3.30
2017-07-16T18:36:24.332Z,2.93
2017-07-16T18:38:51.927Z,3.73
2017-07-16T18:41:20.298Z,2.90
2017-07-16T18:43:47.936Z,3.57
2017-07-16T18:46:16.289Z,3.40
2017-07-16T18:48:44.061Z,3.73
2017-07-16T18:51:12.440Z,3.20
2017-07-16T18:53:40.231Z,3.97
2017-07-16T18:56:07.802Z,3.93
2017-07-16T18:58:36.444Z,3.70
2017-07-16T19:01:04.730Z,3.93
2017-07-16T19:03:34.024Z,3.70
2017-07-16T19:06:03.121Z,4.23
2017-07-16T19:08:32.761Z,3.97
2017-07-16T19:11:00.533Z,3.93
2017-07-16T19:13:28.158Z,3.80
2017-07-16T19:15:55.783Z,4.13
2017-07-16T19:18:23.393Z,4.10
2017-07-16T19:20:51.087Z,4.17
2017-07-16T19:23:18.687Z,5.20
2017-07-16T19:25:46.280Z,5.23
2017-07-16T19:28:13.959Z,5.53
2017-07-16T19:30:41.563Z,4.53
2017-07-16T19:33:09.144Z,4.23
2017-07-16T19:35:36.774Z,5.00
2017-07-16T19:38:04.359Z,5.43
2017-07-16T19:40:31.932Z,4.17
2017-07-16T19:42:59.567Z,6.23
2017-07-16T19:45:27.174Z,5.67
2017-07-16T19:47:54.775Z,4.50
2017-07-16T19:50:22.598Z,4.93
2017-07-16T19:52:50.232Z,5.47
2017-07-16T19:55:17.818Z,6.10
2017-07-16T19:57:45.669Z,5.20
2017-07-16T20:00:13.322Z,5.20
2017-07-16T20:02:40.912Z,4.47
2017-07-16T20:05:08.734Z,5.60
2017-07-16T20:07:37.179Z,5.40
2017-07-16T20:10:05.530Z,6.27
2017-07-16T20:12:33.194Z,6.00
2017-07-16T20:15:00.784Z,5.33
2017-07-16T20:17:28.362Z,6.13
2017-07-16T20:19:55.981Z,5.50
2017-07-16T20:22:23.568Z,5.47
2017-07-16T20:24:51.171Z,7.10
2017-07-16T20:27:18.787Z,5.67
2017-07-16T20:29:46.414Z,6.17
2017-07-16T20:32:13.994Z,5.90
2017-07-16T20:34:41.634Z,5.77
2017-07-16T20:37:09.225Z,5.77
2017-07-16T20:39:36.790Z,6.47
2017-07-16T20:42:05.183Z,6.53
2017-07-16T20:44:32.769Z,6.00
2017-07-16T20:47:00.417Z,5.77
2017-07-16T20:49:28.023Z,6.20
2017-07-16T20:51:55.617Z,6.17
2017-07-16T20:54:23.214Z,6.03
2017-07-16T20:56:50.847Z,6.30
2017-07-16T20:59:18.437Z,5.97
2017-07-16T21:01:46.034Z,6.00
2017-07-16T21:04:13.673Z,6.23
2017-07-16T21:06:41.245Z,6.93
2017-07-16T21:09:08.820Z,6.50
2017-07-16T21:11:36.440Z,6.00
2017-07-16T21:14:04.029Z,7.53
2017-07-16T21:16:32.389Z,7.30
2017-07-16T21:19:00.060Z,6.30
2017-07-16T21:21:27.653Z,6.70
2017-07-16T21:23:55.226Z,6.53
2017-07-16T21:26:23.626Z,7.13
2017-07-16T21:28:51.204Z,6.20
2017-07-16T21:31:18.794Z,7.30
2017-07-16T21:33:46.426Z,7.47
2017-07-16T21:36:14.768Z,7.30
2017-07-16T21:38:42.373Z,7.13
2017-07-16T21:41:10.000Z,7.80
2017-07-16T21:43:37.570Z,7.90
2017-07-16T21:46:05.159Z,7.50
2017-07-16T21:48:32.799Z,6.50
2017-07-16T21:51:00.397Z,7.47
2017-07-16T21:53:27.991Z,6.97
2017-07-16T21:55:55.610Z,8.60
2017-07-16T21:58:23.185Z,6.87
2017-07-16T22:00:50.768Z,7.07
2017-07-16T22:03:18.396Z,7.70
2017-07-16T22:05:45.981Z,8.60
2017-07-16T22:08:13.573Z,7.87
2017-07-16T22:10:41.990Z,8.87
2017-07-16T22:13:09.554Z,9.87
2017-07-16T22:15:37.122Z,8.60
2017-07-16T22:18:05.524Z,8.03
2017-07-16T22:20:33.119Z,8.40
2017-07-16T22:23:00.689Z,8.60
2017-07-16T22:25:28.316Z,7.90
2017-07-16T22:27:56.650Z,7.60
2017-07-16T22:30:24.246Z,7.20
2017-07-16T22:32:51.941Z,7.70
2017-07-16T22:35:19.541Z,8.50
2017-07-16T22:37:47.129Z,7.67
2017-07-16T22:40:14.738Z,9.23
2017-07-16T22:42:42.319Z,7.97
2017-07-16T22:45:09.900Z,8.00
2017-07-16T22:47:38.277Z,9.67
2017-07-16T22:50:05.850Z,8.63
2017-07-16T22:52:33.441Z,7.90
2017-07-16T22:55:01.846Z,8.50
2017-07-16T22:57:29.436Z,9.10
2017-07-16T22:59:57.002Z,8.87
2017-07-16T23:02:25.389Z,7.70
2017-07-16T23:04:52.963Z,7.40
2017-07-16T23:07:20.552Z,8.30
2017-07-16T23:09:48.941Z,6.70
2017-07-16T23:12:16.521Z,7.20
2017-07-16T23:14:44.108Z,7.83
2017-07-16T23:17:11.752Z,7.53
2017-07-16T23:19:39.335Z,9.10
2017-07-16T23:22:06.905Z,8.33
2017-07-16T23:24:34.524Z,7.13
2017-07-16T23:27:02.100Z,8.33
2017-07-16T23:29:29.684Z,8.57
2017-07-16T23:31:57.324Z,7.97
2017-07-16T23:34:24.912Z,7.47
2017-07-16T23:36:52.496Z,8.53
2017-07-16T23:39:20.883Z,8.17
2017-07-16T23:41:48.466Z,7.80
2017-07-16T23:44:16.038Z,8.23
2017-07-16T23:46:44.424Z,7.50
2017-07-16T23:49:12.012Z,8.87
2017-07-16T23:51:39.596Z,9.57
2017-07-16T23:54:07.984Z,8.00
2017-07-16T23:56:35.559Z,8.40
2017-07-16T23:59:03.145Z,8.03
